sensor_id;sensor_type;location;lat;lon;timestamp;P1;durP1;ratioP1;P2;durP2;ratioP2
41667;SDS011;27356;50.920;5.350;2022-12-20T00:01:08;1.52;;;0.98;;
41667;SDS011;27356;50.920;5.350;2022-12-20T00:03:35;2.45;;;1.00;;
41667;SDS011;27356;50.920;5.350;2022-12-20T00:06:01;2.55;;;1.05;;
41667;SDS011;27356;50.920;5.350;2022-12-20T00:08:27;2.03;;;1.38;;
41667;SDS011;27356;50.920;5.350;2022-12-20T00:10:53;2.35;;;1.67;;
41667;SDS011;27356;50.920;5.350;2022-12-20T00:13:18;2.00;;;1.10;;
41667;SDS011;27356;50.920;5.350;2022-12-20T00:15:44;2.55;;;1.20;;
41667;SDS011;27356;50.920;5.350;2022-12-20T00:18:10;2.70;;;1.38;;
41667;SDS011;27356;50.920;5.350;2022-12-20T00:20:36;4.13;;;1.25;;
41667;SDS011;27356;50.920;5.350;2022-12-20T00:23:04;2.40;;;1.00;;
41667;SDS011;27356;50.920;5.350;2022-12-20T00:25:30;2.28;;;1.10;;
41667;SDS011;27356;50.920;5.350;2022-12-20T00:27:56;2.72;;;1.05;;
41667;SDS011;27356;50.920;5.350;2022-12-20T00:30:21;2.67;;;1.02;;
41667;SDS011;27356;50.920;5.350;2022-12-20T00:32:47;2.35;;;1.20;;
41667;SDS011;27356;50.920;5.350;2022-12-20T00:35:13;3.08;;;1.17;;
41667;SDS011;27356;50.920;5.350;2022-12-20T00:37:41;4.35;;;1.30;;
41667;SDS011;27356;50.920;5.350;2022-12-20T00:40:08;2.03;;;1.52;;
41667;SDS011;27356;50.920;5.350;2022-12-20T00:42:33;3.30;;;1.35;;
41667;SDS011;27356;50.920;5.350;2022-12-20T00:44:59;4.75;;;1.73;;
41667;SDS011;27356;50.920;5.350;2022-12-20T00:47:25;3.13;;;1.20;;
41667;SDS011;27356;50.920;5.350;2022-12-20T00:49:51;2.40;;;1.38;;
41667;SDS011;27356;50.920;5.350;2022-12-20T00:52:16;6.03;;;1.40;;
41667;SDS011;27356;50.920;5.350;2022-12-20T00:54:42;2.88;;;1.25;;
41667;SDS011;27356;50.920;5.350;2022-12-20T00:57:08;2.30;;;1.20;;
41667;SDS011;27356;50.920;5.350;2022-12-20T00:59:33;1.10;;;1.00;;
41667;SDS011;27356;50.920;5.350;2022-12-20T01:01:59;1.50;;;1.15;;
41667;SDS011;27356;50.920;5.350;2022-12-20T01:04:27;3.05;;;1.15;;
41667;SDS011;27356;50.920;5.350;2022-12-20T01:06:53;1.52;;;1.17;;
41667;SDS011;27356;50.920;5.350;2022-12-20T01:09:19;1.60;;;1.02;;
41667;SDS011;27356;50.920;5.350;2022-12-20T01:11:45;1.02;;;0.80;;
41667;SDS011;27356;50.920;5.350;2022-12-20T01:14:12;4.05;;;1.30;;
41667;SDS011;27356;50.920;5.350;2022-12-20T01:16:40;1.10;;;1.00;;
41667;SDS011;27356;50.920;5.350;2022-12-20T01:19:12;1.50;;;0.95;;
41667;SDS011;27356;50.920;5.350;2022-12-20T01:21:45;2.95;;;1.17;;
41667;SDS011;27356;50.920;5.350;2022-12-20T01:24:18;2.53;;;1.15;;
41667;SDS011;27356;50.920;5.350;2022-12-20T01:26:48;3.63;;;1.23;;
41667;SDS011;27356;50.920;5.350;2022-12-20T01:29:14;5.20;;;1.20;;
41667;SDS011;27356;50.920;5.350;2022-12-20T01:31:40;3.13;;;1.30;;
41667;SDS011;27356;50.920;5.350;2022-12-20T01:34:06;2.97;;;1.77;;
41667;SDS011;27356;50.920;5.350;2022-12-20T01:36:33;3.58;;;1.27;;
41667;SDS011;27356;50.920;5.350;2022-12-20T01:39:04;5.60;;;1.73;;
41667;SDS011;27356;50.920;5.350;2022-12-20T01:41:33;3.45;;;1.80;;
41667;SDS011;27356;50.920;5.350;2022-12-20T01:44:01;2.00;;;1.38;;
41667;SDS011;27356;50.920;5.350;2022-12-20T01:46:48;2.90;;;1.45;;
41667;SDS011;27356;50.920;5.350;2022-12-20T01:51:49;3.03;;;1.35;;
41667;SDS011;27356;50.920;5.350;2022-12-20T01:54:21;3.38;;;1.20;;
41667;SDS011;27356;50.920;5.350;2022-12-20T01:56:51;2.67;;;1.35;;
41667;SDS011;27356;50.920;5.350;2022-12-20T01:59:21;2.15;;;1.17;;
41667;SDS011;27356;50.920;5.350;2022-12-20T02:01:47;5.07;;;1.35;;
41667;SDS011;27356;50.920;5.350;2022-12-20T02:04:13;2.25;;;1.30;;
41667;SDS011;27356;50.920;5.350;2022-12-20T02:06:38;5.05;;;1.40;;
41667;SDS011;27356;50.920;5.350;2022-12-20T02:09:04;1.25;;;1.13;;
41667;SDS011;27356;50.920;5.350;2022-12-20T02:23:00;3.15;;;1.20;;
41667;SDS011;27356;50.920;5.350;2022-12-20T02:31:07;3.10;;;1.65;;
41667;SDS011;27356;50.920;5.350;2022-12-20T02:33:37;3.13;;;1.40;;
41667;SDS011;27356;50.920;5.350;2022-12-20T02:36:06;1.73;;;1.20;;
41667;SDS011;27356;50.920;5.350;2022-12-20T02:38:33;4.05;;;1.42;;
41667;SDS011;27356;50.920;5.350;2022-12-20T02:41:05;4.00;;;1.20;;
41667;SDS011;27356;50.920;5.350;2022-12-20T02:43:36;3.50;;;1.20;;
41667;SDS011;27356;50.920;5.350;2022-12-20T02:46:24;1.75;;;1.00;;
41667;SDS011;27356;50.920;5.350;2022-12-20T02:48:51;1.67;;;1.23;;
41667;SDS011;27356;50.920;5.350;2022-12-20T02:51:20;1.85;;;1.60;;
41667;SDS011;27356;50.920;5.350;2022-12-20T02:53:50;2.30;;;1.40;;
41667;SDS011;27356;50.920;5.350;2022-12-20T03:01:35;4.45;;;1.50;;
41667;SDS011;27356;50.920;5.350;2022-12-20T03:04:04;2.30;;;1.23;;
41667;SDS011;27356;50.920;5.350;2022-12-20T03:06:32;4.15;;;1.50;;
41667;SDS011;27356;50.920;5.350;2022-12-20T03:08:58;4.20;;;1.90;;
41667;SDS011;27356;50.920;5.350;2022-12-20T03:11:23;2.45;;;1.40;;
41667;SDS011;27356;50.920;5.350;2022-12-20T03:13:49;2.45;;;1.48;;
41667;SDS011;27356;50.920;5.350;2022-12-20T03:16:15;1.20;;;1.02;;
41667;SDS011;27356;50.920;5.350;2022-12-20T03:18:41;2.10;;;1.50;;
41667;SDS011;27356;50.920;5.350;2022-12-20T03:21:06;2.15;;;1.30;;
41667;SDS011;27356;50.920;5.350;2022-12-20T03:23:32;1.77;;;1.55;;
41667;SDS011;27356;50.920;5.350;2022-12-20T03:25:58;4.07;;;1.75;;
41667;SDS011;27356;50.920;5.350;2022-12-20T03:28:24;4.70;;;1.80;;
41667;SDS011;27356;50.920;5.350;2022-12-20T03:30:49;2.72;;;1.60;;
41667;SDS011;27356;50.920;5.350;2022-12-20T03:33:15;5.72;;;1.40;;
41667;SDS011;27356;50.920;5.350;2022-12-20T03:35:41;2.30;;;1.35;;
41667;SDS011;27356;50.920;5.350;2022-12-20T03:38:06;4.15;;;1.73;;
41667;SDS011;27356;50.920;5.350;2022-12-20T03:40:32;1.90;;;1.52;;
41667;SDS011;27356;50.920;5.350;2022-12-20T03:42:58;2.35;;;1.35;;
41667;SDS011;27356;50.920;5.350;2022-12-20T03:45:24;2.53;;;1.48;;
41667;SDS011;27356;50.920;5.350;2022-12-20T03:47:49;1.73;;;1.40;;
41667;SDS011;27356;50.920;5.350;2022-12-20T03:50:15;2.35;;;1.20;;
41667;SDS011;27356;50.920;5.350;2022-12-20T03:52:41;4.30;;;1.52;;
41667;SDS011;27356;50.920;5.350;2022-12-20T03:55:07;3.08;;;1.55;;
41667;SDS011;27356;50.920;5.350;2022-12-20T03:57:33;4.53;;;1.27;;
41667;SDS011;27356;50.920;5.350;2022-12-20T03:59:59;1.88;;;1.63;;
41667;SDS011;27356;50.920;5.350;2022-12-20T04:02:25;2.70;;;1.42;;
41667;SDS011;27356;50.920;5.350;2022-12-20T04:04:51;4.93;;;1.58;;
41667;SDS011;27356;50.920;5.350;2022-12-20T04:07:17;3.78;;;1.33;;
41667;SDS011;27356;50.920;5.350;2022-12-20T04:09:42;3.58;;;1.83;;
41667;SDS011;27356;50.920;5.350;2022-12-20T04:12:08;1.60;;;1.00;;
41667;SDS011;27356;50.920;5.350;2022-12-20T04:14:33;3.08;;;1.52;;
41667;SDS011;27356;50.920;5.350;2022-12-20T04:17:00;3.00;;;1.40;;
41667;SDS011;27356;50.920;5.350;2022-12-20T04:19:25;6.72;;;2.38;;
41667;SDS011;27356;50.920;5.350;2022-12-20T04:21:51;3.72;;;1.42;;
41667;SDS011;27356;50.920;5.350;2022-12-20T04:24:19;2.63;;;1.23;;
41667;SDS011;27356;50.920;5.350;2022-12-20T04:26:46;4.85;;;1.40;;
41667;SDS011;27356;50.920;5.350;2022-12-20T04:29:13;3.95;;;1.58;;
41667;SDS011;27356;50.920;5.350;2022-12-20T04:31:38;5.28;;;1.27;;
41667;SDS011;27356;50.920;5.350;2022-12-20T04:34:04;4.90;;;1.15;;
41667;SDS011;27356;50.920;5.350;2022-12-20T04:36:30;3.60;;;1.48;;
41667;SDS011;27356;50.920;5.350;2022-12-20T04:38:56;2.10;;;1.58;;
41667;SDS011;27356;50.920;5.350;2022-12-20T04:41:21;4.85;;;1.25;;
41667;SDS011;27356;50.920;5.350;2022-12-20T04:43:48;4.30;;;1.30;;
41667;SDS011;27356;50.920;5.350;2022-12-20T04:46:18;3.78;;;1.27;;
41667;SDS011;27356;50.920;5.350;2022-12-20T04:48:44;2.10;;;1.13;;
41667;SDS011;27356;50.920;5.350;2022-12-20T04:51:10;5.45;;;1.45;;
41667;SDS011;27356;50.920;5.350;2022-12-20T04:53:35;1.30;;;1.08;;
41667;SDS011;27356;50.920;5.350;2022-12-20T04:56:14;4.00;;;1.00;;
41667;SDS011;27356;50.920;5.350;2022-12-20T04:58:45;1.58;;;1.20;;
41667;SDS011;27356;50.920;5.350;2022-12-20T05:01:12;2.08;;;1.00;;
41667;SDS011;27356;50.920;5.350;2022-12-20T05:03:37;1.73;;;1.00;;
41667;SDS011;27356;50.920;5.350;2022-12-20T05:06:04;3.03;;;1.02;;
41667;SDS011;27356;50.920;5.350;2022-12-20T05:08:30;4.35;;;1.10;;
41667;SDS011;27356;50.920;5.350;2022-12-20T05:10:55;2.13;;;1.00;;
41667;SDS011;27356;50.920;5.350;2022-12-20T05:13:21;1.55;;;1.10;;
41667;SDS011;27356;50.920;5.350;2022-12-20T05:15:51;1.50;;;1.20;;
41667;SDS011;27356;50.920;5.350;2022-12-20T05:18:17;1.52;;;0.90;;
41667;SDS011;27356;50.920;5.350;2022-12-20T05:20:43;2.88;;;1.20;;
41667;SDS011;27356;50.920;5.350;2022-12-20T05:23:09;3.35;;;1.10;;
41667;SDS011;27356;50.920;5.350;2022-12-20T05:25:54;1.05;;;0.90;;
41667;SDS011;27356;50.920;5.350;2022-12-20T05:28:39;2.13;;;1.00;;
41667;SDS011;27356;50.920;5.350;2022-12-20T05:31:05;2.75;;;1.35;;
41667;SDS011;27356;50.920;5.350;2022-12-20T05:33:30;2.53;;;1.25;;
41667;SDS011;27356;50.920;5.350;2022-12-20T05:35:56;2.83;;;1.00;;
41667;SDS011;27356;50.920;5.350;2022-12-20T05:38:23;2.88;;;1.10;;
41667;SDS011;27356;50.920;5.350;2022-12-20T05:40:49;1.40;;;1.05;;
41667;SDS011;27356;50.920;5.350;2022-12-20T05:43:15;3.53;;;0.90;;
41667;SDS011;27356;50.920;5.350;2022-12-20T05:45:49;2.35;;;1.10;;
41667;SDS011;27356;50.920;5.350;2022-12-20T05:48:16;3.33;;;1.10;;
41667;SDS011;27356;50.920;5.350;2022-12-20T05:50:43;1.95;;;0.98;;
41667;SDS011;27356;50.920;5.350;2022-12-20T05:53:13;2.47;;;0.70;;
41667;SDS011;27356;50.920;5.350;2022-12-20T05:55:50;2.13;;;0.80;;
41667;SDS011;27356;50.920;5.350;2022-12-20T05:58:16;4.72;;;1.30;;
41667;SDS011;27356;50.920;5.350;2022-12-20T06:00:43;1.05;;;0.90;;
41667;SDS011;27356;50.920;5.350;2022-12-20T06:03:09;3.75;;;1.00;;
41667;SDS011;27356;50.920;5.350;2022-12-20T06:05:38;2.47;;;1.05;;
41667;SDS011;27356;50.920;5.350;2022-12-20T06:08:05;2.15;;;1.00;;
41667;SDS011;27356;50.920;5.350;2022-12-20T06:10:31;3.30;;;0.90;;
41667;SDS011;27356;50.920;5.350;2022-12-20T06:13:01;2.60;;;1.00;;
41667;SDS011;27356;50.920;5.350;2022-12-20T06:15:53;3.67;;;1.25;;
41667;SDS011;27356;50.920;5.350;2022-12-20T06:18:19;1.38;;;0.75;;
41667;SDS011;27356;50.920;5.350;2022-12-20T06:20:48;2.15;;;0.80;;
41667;SDS011;27356;50.920;5.350;2022-12-20T06:23:15;3.97;;;1.10;;
41667;SDS011;27356;50.920;5.350;2022-12-20T06:25:41;1.15;;;0.80;;
41667;SDS011;27356;50.920;5.350;2022-12-20T06:28:07;2.92;;;0.90;;
41667;SDS011;27356;50.920;5.350;2022-12-20T06:30:33;1.80;;;1.05;;
41667;SDS011;27356;50.920;5.350;2022-12-20T06:32:59;2.30;;;1.10;;
41667;SDS011;27356;50.920;5.350;2022-12-20T06:35:26;1.45;;;0.93;;
41667;SDS011;27356;50.920;5.350;2022-12-20T06:37:51;2.92;;;0.90;;
41667;SDS011;27356;50.920;5.350;2022-12-20T06:40:17;3.53;;;1.23;;
41667;SDS011;27356;50.920;5.350;2022-12-20T06:42:43;4.68;;;1.08;;
41667;SDS011;27356;50.920;5.350;2022-12-20T06:45:08;1.98;;;1.13;;
41667;SDS011;27356;50.920;5.350;2022-12-20T06:47:34;1.90;;;1.10;;
41667;SDS011;27356;50.920;5.350;2022-12-20T06:50:01;2.55;;;1.02;;
41667;SDS011;27356;50.920;5.350;2022-12-20T06:52:27;2.95;;;0.80;;
41667;SDS011;27356;50.920;5.350;2022-12-20T06:54:52;2.80;;;0.90;;
41667;SDS011;27356;50.920;5.350;2022-12-20T06:57:18;3.17;;;0.90;;
41667;SDS011;27356;50.920;5.350;2022-12-20T06:59:44;1.10;;;0.73;;
41667;SDS011;27356;50.920;5.350;2022-12-20T07:02:12;3.55;;;0.80;;
41667;SDS011;27356;50.920;5.350;2022-12-20T07:04:38;4.20;;;1.10;;
41667;SDS011;27356;50.920;5.350;2022-12-20T07:07:04;2.67;;;0.95;;
41667;SDS011;27356;50.920;5.350;2022-12-20T07:09:30;2.65;;;1.00;;
41667;SDS011;27356;50.920;5.350;2022-12-20T07:11:56;2.65;;;1.30;;
41667;SDS011;27356;50.920;5.350;2022-12-20T07:14:22;3.72;;;0.80;;
41667;SDS011;27356;50.920;5.350;2022-12-20T07:16:47;6.32;;;0.90;;
41667;SDS011;27356;50.920;5.350;2022-12-20T07:19:14;4.93;;;1.25;;
41667;SDS011;27356;50.920;5.350;2022-12-20T07:21:40;3.65;;;1.27;;
41667;SDS011;27356;50.920;5.350;2022-12-20T07:24:07;3.10;;;1.00;;
41667;SDS011;27356;50.920;5.350;2022-12-20T07:26:32;1.58;;;0.90;;
41667;SDS011;27356;50.920;5.350;2022-12-20T07:28:58;2.47;;;0.80;;
41667;SDS011;27356;50.920;5.350;2022-12-20T07:31:24;1.27;;;0.73;;
41667;SDS011;27356;50.920;5.350;2022-12-20T07:33:50;4.10;;;0.90;;
41667;SDS011;27356;50.920;5.350;2022-12-20T07:36:15;4.47;;;0.98;;
41667;SDS011;27356;50.920;5.350;2022-12-20T07:38:41;1.05;;;0.65;;
41667;SDS011;27356;50.920;5.350;2022-12-20T07:41:11;1.52;;;0.90;;
41667;SDS011;27356;50.920;5.350;2022-12-20T07:43:38;4.78;;;0.98;;
41667;SDS011;27356;50.920;5.350;2022-12-20T07:46:04;2.17;;;0.75;;
41667;SDS011;27356;50.920;5.350;2022-12-20T07:48:31;1.40;;;0.82;;
41667;SDS011;27356;50.920;5.350;2022-12-20T07:50:58;2.13;;;1.00;;
41667;SDS011;27356;50.920;5.350;2022-12-20T07:53:26;1.25;;;0.60;;
41667;SDS011;27356;50.920;5.350;2022-12-20T07:55:53;2.30;;;0.70;;
41667;SDS011;27356;50.920;5.350;2022-12-20T07:58:20;1.30;;;0.63;;
41667;SDS011;27356;50.920;5.350;2022-12-20T08:00:46;2.35;;;0.77;;
41667;SDS011;27356;50.920;5.350;2022-12-20T08:03:19;2.33;;;1.05;;
41667;SDS011;27356;50.920;5.350;2022-12-20T08:05:50;3.42;;;1.05;;
41667;SDS011;27356;50.920;5.350;2022-12-20T08:08:19;2.95;;;0.98;;
41667;SDS011;27356;50.920;5.350;2022-12-20T08:10:46;3.20;;;0.73;;
41667;SDS011;27356;50.920;5.350;2022-12-20T08:13:12;0.95;;;0.90;;
41667;SDS011;27356;50.920;5.350;2022-12-20T08:15:38;1.10;;;0.50;;
41667;SDS011;27356;50.920;5.350;2022-12-20T08:18:04;4.13;;;0.95;;
41667;SDS011;27356;50.920;5.350;2022-12-20T08:20:30;2.38;;;1.00;;
41667;SDS011;27356;50.920;5.350;2022-12-20T08:22:56;4.72;;;1.10;;
41667;SDS011;27356;50.920;5.350;2022-12-20T08:25:22;3.33;;;0.63;;
41667;SDS011;27356;50.920;5.350;2022-12-20T08:27:48;3.63;;;0.95;;
41667;SDS011;27356;50.920;5.350;2022-12-20T08:30:14;0.93;;;0.85;;
41667;SDS011;27356;50.920;5.350;2022-12-20T08:32:40;0.85;;;0.73;;
41667;SDS011;27356;50.920;5.350;2022-12-20T08:35:06;1.40;;;0.75;;
41667;SDS011;27356;50.920;5.350;2022-12-20T08:37:32;2.63;;;0.95;;
41667;SDS011;27356;50.920;5.350;2022-12-20T08:39:58;1.00;;;0.75;;
41667;SDS011;27356;50.920;5.350;2022-12-20T08:42:24;2.53;;;0.90;;
41667;SDS011;27356;50.920;5.350;2022-12-20T08:44:51;5.05;;;1.13;;
41667;SDS011;27356;50.920;5.350;2022-12-20T08:47:17;2.15;;;0.82;;
41667;SDS011;27356;50.920;5.350;2022-12-20T08:49:42;1.75;;;1.55;;
41667;SDS011;27356;50.920;5.350;2022-12-20T08:52:08;3.90;;;0.75;;
41667;SDS011;27356;50.920;5.350;2022-12-20T08:54:34;3.13;;;0.95;;
41667;SDS011;27356;50.920;5.350;2022-12-20T08:56:59;1.50;;;0.82;;
41667;SDS011;27356;50.920;5.350;2022-12-20T08:59:25;3.63;;;0.98;;
41667;SDS011;27356;50.920;5.350;2022-12-20T09:01:51;1.13;;;0.75;;
41667;SDS011;27356;50.920;5.350;2022-12-20T09:04:18;3.30;;;1.20;;
41667;SDS011;27356;50.920;5.350;2022-12-20T09:06:45;2.75;;;0.80;;
41667;SDS011;27356;50.920;5.350;2022-12-20T09:09:11;2.72;;;1.00;;
41667;SDS011;27356;50.920;5.350;2022-12-20T09:11:37;1.92;;;0.80;;
41667;SDS011;27356;50.920;5.350;2022-12-20T09:14:03;1.00;;;0.88;;
41667;SDS011;27356;50.920;5.350;2022-12-20T09:16:30;3.08;;;1.00;;
41667;SDS011;27356;50.920;5.350;2022-12-20T09:18:58;2.50;;;1.17;;
41667;SDS011;27356;50.920;5.350;2022-12-20T09:21:25;3.30;;;1.25;;
41667;SDS011;27356;50.920;5.350;2022-12-20T09:23:52;1.88;;;0.95;;
41667;SDS011;27356;50.920;5.350;2022-12-20T09:26:19;2.67;;;1.13;;
41667;SDS011;27356;50.920;5.350;2022-12-20T09:28:48;3.42;;;1.10;;
41667;SDS011;27356;50.920;5.350;2022-12-20T09:31:16;3.47;;;1.33;;
41667;SDS011;27356;50.920;5.350;2022-12-20T09:33:44;3.05;;;1.00;;
41667;SDS011;27356;50.920;5.350;2022-12-20T09:36:14;3.50;;;1.10;;
41667;SDS011;27356;50.920;5.350;2022-12-20T09:38:42;4.43;;;1.10;;
41667;SDS011;27356;50.920;5.350;2022-12-20T09:41:15;1.67;;;0.90;;
41667;SDS011;27356;50.920;5.350;2022-12-20T09:43:49;1.95;;;1.00;;
41667;SDS011;27356;50.920;5.350;2022-12-20T09:46:15;3.55;;;1.45;;
41667;SDS011;27356;50.920;5.350;2022-12-20T09:48:42;2.78;;;1.05;;
41667;SDS011;27356;50.920;5.350;2022-12-20T09:56:14;4.00;;;1.20;;
41667;SDS011;27356;50.920;5.350;2022-12-20T09:59:02;2.47;;;0.80;;
41667;SDS011;27356;50.920;5.350;2022-12-20T10:01:31;3.95;;;1.15;;
41667;SDS011;27356;50.920;5.350;2022-12-20T10:04:03;5.35;;;2.00;;
41667;SDS011;27356;50.920;5.350;2022-12-20T10:09:42;1.80;;;0.93;;
41667;SDS011;27356;50.920;5.350;2022-12-20T10:17:45;2.30;;;1.70;;
41667;SDS011;27356;50.920;5.350;2022-12-20T10:23:41;3.22;;;1.45;;
41667;SDS011;27356;50.920;5.350;2022-12-20T10:29:08;2.83;;;1.20;;
41667;SDS011;27356;50.920;5.350;2022-12-20T10:31:34;1.98;;;1.10;;
41667;SDS011;27356;50.920;5.350;2022-12-20T10:34:00;1.58;;;0.90;;
41667;SDS011;27356;50.920;5.350;2022-12-20T10:36:30;2.28;;;1.05;;
41667;SDS011;27356;50.920;5.350;2022-12-20T10:39:02;5.55;;;1.23;;
41667;SDS011;27356;50.920;5.350;2022-12-20T10:41:46;2.75;;;0.93;;
41667;SDS011;27356;50.920;5.350;2022-12-20T10:46:42;2.47;;;1.05;;
41667;SDS011;27356;50.920;5.350;2022-12-20T10:49:31;1.13;;;0.80;;
41667;SDS011;27356;50.920;5.350;2022-12-20T10:54:43;2.05;;;1.15;;
41667;SDS011;27356;50.920;5.350;2022-12-20T10:57:24;2.95;;;1.40;;
41667;SDS011;27356;50.920;5.350;2022-12-20T11:00:01;3.65;;;1.00;;
41667;SDS011;27356;50.920;5.350;2022-12-20T11:02:30;2.25;;;1.05;;
41667;SDS011;27356;50.920;5.350;2022-12-20T11:07:53;8.27;;;1.90;;
41667;SDS011;27356;50.920;5.350;2022-12-20T11:10:32;3.20;;;1.20;;
41667;SDS011;27356;50.920;5.350;2022-12-20T11:12:58;3.40;;;1.00;;
41667;SDS011;27356;50.920;5.350;2022-12-20T11:15:29;3.22;;;1.20;;
41667;SDS011;27356;50.920;5.350;2022-12-20T11:18:04;5.15;;;1.55;;
41667;SDS011;27356;50.920;5.350;2022-12-20T11:20:42;2.78;;;1.23;;
41667;SDS011;27356;50.920;5.350;2022-12-20T11:23:20;4.22;;;1.50;;
41667;SDS011;27356;50.920;5.350;2022-12-20T11:53:44;5.95;;;1.58;;
41667;SDS011;27356;50.920;5.350;2022-12-20T11:55:57;2.53;;;1.27;;
41667;SDS011;27356;50.920;5.350;2022-12-20T11:58:31;3.22;;;1.67;;
41667;SDS011;27356;50.920;5.350;2022-12-20T12:01:10;6.50;;;1.52;;
41667;SDS011;27356;50.920;5.350;2022-12-20T12:03:40;6.40;;;1.67;;
41667;SDS011;27356;50.920;5.350;2022-12-20T12:06:26;4.55;;;1.95;;
41667;SDS011;27356;50.920;5.350;2022-12-20T12:09:02;3.60;;;1.75;;
41667;SDS011;27356;50.920;5.350;2022-12-20T12:11:49;3.55;;;1.85;;
41667;SDS011;27356;50.920;5.350;2022-12-20T12:14:29;5.20;;;1.77;;
41667;SDS011;27356;50.920;5.350;2022-12-20T12:17:03;2.50;;;1.70;;
41667;SDS011;27356;50.920;5.350;2022-12-20T12:19:46;2.60;;;1.17;;
41667;SDS011;27356;50.920;5.350;2022-12-20T12:22:15;5.15;;;1.85;;
41667;SDS011;27356;50.920;5.350;2022-12-20T12:24:50;2.83;;;1.40;;
41667;SDS011;27356;50.920;5.350;2022-12-20T12:27:25;9.85;;;2.38;;
41667;SDS011;27356;50.920;5.350;2022-12-20T12:29:52;4.45;;;1.17;;
41667;SDS011;27356;50.920;5.350;2022-12-20T12:38:24;4.60;;;1.52;;
41667;SDS011;27356;50.920;5.350;2022-12-20T12:43:54;4.05;;;1.45;;
41667;SDS011;27356;50.920;5.350;2022-12-20T12:46:40;2.58;;;1.90;;
41667;SDS011;27356;50.920;5.350;2022-12-20T12:49:16;3.85;;;1.58;;
41667;SDS011;27356;50.920;5.350;2022-12-20T12:51:50;6.35;;;1.80;;
41667;SDS011;27356;50.920;5.350;2022-12-20T12:54:21;4.80;;;1.48;;
41667;SDS011;27356;50.920;5.350;2022-12-20T12:57:00;4.65;;;1.63;;
41667;SDS011;27356;50.920;5.350;2022-12-20T13:04:29;3.75;;;1.77;;
41667;SDS011;27356;50.920;5.350;2022-12-20T13:09:55;6.53;;;2.15;;
41667;SDS011;27356;50.920;5.350;2022-12-20T13:15:45;3.83;;;1.88;;
41667;SDS011;27356;50.920;5.350;2022-12-20T13:17:54;3.55;;;1.90;;
41667;SDS011;27356;50.920;5.350;2022-12-20T13:20:34;6.22;;;2.22;;
41667;SDS011;27356;50.920;5.350;2022-12-20T13:23:05;3.83;;;2.20;;
41667;SDS011;27356;50.920;5.350;2022-12-20T13:51:18;3.72;;;1.90;;
41667;SDS011;27356;50.920;5.350;2022-12-20T13:53:56;7.78;;;2.00;;
41667;SDS011;27356;50.920;5.350;2022-12-20T13:58:53;7.55;;;2.20;;
41667;SDS011;27356;50.920;5.350;2022-12-20T14:01:21;6.57;;;1.75;;
41667;SDS011;27356;50.920;5.350;2022-12-20T14:03:48;9.00;;;1.70;;
41667;SDS011;27356;50.920;5.350;2022-12-20T14:06:19;3.70;;;1.80;;
41667;SDS011;27356;50.920;5.350;2022-12-20T14:08:47;6.80;;;2.10;;
41667;SDS011;27356;50.920;5.350;2022-12-20T14:11:16;4.60;;;1.73;;
41667;SDS011;27356;50.920;5.350;2022-12-20T14:13:50;1.80;;;1.50;;
41667;SDS011;27356;50.920;5.350;2022-12-20T14:16:19;9.55;;;2.08;;
41667;SDS011;27356;50.920;5.350;2022-12-20T14:18:47;6.18;;;2.22;;
41667;SDS011;27356;50.920;5.350;2022-12-20T14:21:36;3.88;;;1.73;;
41667;SDS011;27356;50.920;5.350;2022-12-20T14:24:07;6.15;;;1.83;;
41667;SDS011;27356;50.920;5.350;2022-12-20T14:26:44;8.20;;;2.00;;
41667;SDS011;27356;50.920;5.350;2022-12-20T14:29:16;3.38;;;1.63;;
41667;SDS011;27356;50.920;5.350;2022-12-20T14:31:44;6.80;;;2.42;;
41667;SDS011;27356;50.920;5.350;2022-12-20T14:36:43;4.63;;;2.30;;
41667;SDS011;27356;50.920;5.350;2022-12-20T14:44:31;6.22;;;2.83;;
41667;SDS011;27356;50.920;5.350;2022-12-20T14:47:01;5.97;;;2.00;;
41667;SDS011;27356;50.920;5.350;2022-12-20T14:49:38;3.08;;;2.08;;
41667;SDS011;27356;50.920;5.350;2022-12-20T14:54:58;6.25;;;1.98;;
41667;SDS011;27356;50.920;5.350;2022-12-20T14:57:30;4.43;;;1.80;;
41667;SDS011;27356;50.920;5.350;2022-12-20T15:13:34;4.05;;;1.67;;
41667;SDS011;27356;50.920;5.350;2022-12-20T15:16:03;2.92;;;1.70;;
41667;SDS011;27356;50.920;5.350;2022-12-20T15:18:50;3.85;;;1.73;;
41667;SDS011;27356;50.920;5.350;2022-12-20T15:21:36;5.00;;;1.90;;
41667;SDS011;27356;50.920;5.350;2022-12-20T15:24:17;5.20;;;2.15;;
41667;SDS011;27356;50.920;5.350;2022-12-20T15:26:46;5.40;;;2.00;;
41667;SDS011;27356;50.920;5.350;2022-12-20T15:29:17;5.15;;;2.38;;
41667;SDS011;27356;50.920;5.350;2022-12-20T15:31:44;3.97;;;1.60;;
41667;SDS011;27356;50.920;5.350;2022-12-20T15:34:17;3.42;;;1.85;;
41667;SDS011;27356;50.920;5.350;2022-12-20T15:36:48;3.08;;;1.73;;
41667;SDS011;27356;50.920;5.350;2022-12-20T15:39:13;5.55;;;1.80;;
41667;SDS011;27356;50.920;5.350;2022-12-20T15:41:40;5.63;;;1.70;;
41667;SDS011;27356;50.920;5.350;2022-12-20T15:44:13;5.45;;;2.17;;
41667;SDS011;27356;50.920;5.350;2022-12-20T15:46:41;5.35;;;2.15;;
41667;SDS011;27356;50.920;5.350;2022-12-20T15:49:14;4.07;;;1.73;;
41667;SDS011;27356;50.920;5.350;2022-12-20T15:51:42;9.77;;;2.40;;
41667;SDS011;27356;50.920;5.350;2022-12-20T15:56:51;5.68;;;1.70;;
41667;SDS011;27356;50.920;5.350;2022-12-20T15:59:17;4.57;;;2.00;;
41667;SDS011;27356;50.920;5.350;2022-12-20T16:01:43;9.93;;;2.22;;
41667;SDS011;27356;50.920;5.350;2022-12-20T16:04:17;5.45;;;2.10;;
41667;SDS011;27356;50.920;5.350;2022-12-20T16:06:44;8.02;;;2.58;;
41667;SDS011;27356;50.920;5.350;2022-12-20T16:09:12;3.97;;;2.30;;
41667;SDS011;27356;50.920;5.350;2022-12-20T16:11:38;3.53;;;2.05;;
41667;SDS011;27356;50.920;5.350;2022-12-20T16:14:04;4.53;;;2.30;;
41667;SDS011;27356;50.920;5.350;2022-12-20T16:16:31;3.75;;;2.08;;
41667;SDS011;27356;50.920;5.350;2022-12-20T16:18:58;6.70;;;3.03;;
41667;SDS011;27356;50.920;5.350;2022-12-20T16:21:32;6.72;;;2.63;;
41667;SDS011;27356;50.920;5.350;2022-12-20T16:24:00;6.55;;;2.53;;
41667;SDS011;27356;50.920;5.350;2022-12-20T16:26:26;5.10;;;2.53;;
41667;SDS011;27356;50.920;5.350;2022-12-20T16:28:53;7.63;;;2.30;;
41667;SDS011;27356;50.920;5.350;2022-12-20T16:31:24;7.40;;;2.50;;
41667;SDS011;27356;50.920;5.350;2022-12-20T16:33:50;11.70;;;2.72;;
41667;SDS011;27356;50.920;5.350;2022-12-20T16:36:17;5.38;;;2.78;;
41667;SDS011;27356;50.920;5.350;2022-12-20T16:38:42;9.23;;;2.88;;
41667;SDS011;27356;50.920;5.350;2022-12-20T16:41:18;7.75;;;2.90;;
41667;SDS011;27356;50.920;5.350;2022-12-20T16:43:49;7.13;;;2.83;;
41667;SDS011;27356;50.920;5.350;2022-12-20T16:46:16;6.97;;;2.97;;
41667;SDS011;27356;50.920;5.350;2022-12-20T16:48:43;10.20;;;2.97;;
41667;SDS011;27356;50.920;5.350;2022-12-20T16:53:46;6.32;;;3.00;;
41667;SDS011;27356;50.920;5.350;2022-12-20T16:56:12;5.15;;;2.42;;
41667;SDS011;27356;50.920;5.350;2022-12-20T16:58:39;5.97;;;2.50;;
41667;SDS011;27356;50.920;5.350;2022-12-20T17:01:04;5.38;;;2.55;;
41667;SDS011;27356;50.920;5.350;2022-12-20T17:03:30;3.67;;;2.90;;
41667;SDS011;27356;50.920;5.350;2022-12-20T17:05:56;7.50;;;2.72;;
41667;SDS011;27356;50.920;5.350;2022-12-20T17:08:21;5.90;;;2.38;;
41667;SDS011;27356;50.920;5.350;2022-12-20T17:10:48;9.05;;;2.83;;
41667;SDS011;27356;50.920;5.350;2022-12-20T17:13:13;4.15;;;3.25;;
41667;SDS011;27356;50.920;5.350;2022-12-20T17:15:42;4.80;;;2.50;;
41667;SDS011;27356;50.920;5.350;2022-12-20T17:18:09;5.90;;;2.70;;
41667;SDS011;27356;50.920;5.350;2022-12-20T17:20:36;6.03;;;2.90;;
41667;SDS011;27356;50.920;5.350;2022-12-20T17:23:01;4.57;;;2.67;;
41667;SDS011;27356;50.920;5.350;2022-12-20T17:25:28;3.70;;;2.83;;
41667;SDS011;27356;50.920;5.350;2022-12-20T17:27:57;4.72;;;2.72;;
41667;SDS011;27356;50.920;5.350;2022-12-20T17:30:23;4.57;;;2.40;;
41667;SDS011;27356;50.920;5.350;2022-12-20T17:32:49;6.38;;;3.00;;
41667;SDS011;27356;50.920;5.350;2022-12-20T17:35:20;4.72;;;3.22;;